createdAt,value
2022-12-20T00:01:22.526Z,10.01
2022-12-20T00:03:51.001Z,10.00
2022-12-20T00:06:17.600Z,10.00
2022-12-20T00:08:45.223Z,10.02
2022-12-20T00:11:11.850Z,10.02
2022-12-20T00:13:39.816Z,10.02
2022-12-20T00:16:07.538Z,10.03
2022-12-20T00:18:34.610Z,10.03
2022-12-20T00:21:02.538Z,10.08
2022-12-20T00:23:31.811Z,10.11
2022-12-20T00:26:03.414Z,10.12
2022-12-20T00:28:30.774Z,10.19
2022-12-20T00:30:58.769Z,10.20
2022-12-20T00:33:25.556Z,10.24
2022-12-20T00:35:52.272Z,10.28
2022-12-20T00:38:18.730Z,10.26
2022-12-20T00:40:45.372Z,10.28
2022-12-20T00:43:11.884Z,10.32
2022-12-20T00:45:38.397Z,10.30
2022-12-20T00:48:05.729Z,10.34
2022-12-20T00:50:32.185Z,10.36
2022-12-20T00:52:58.610Z,10.39
2022-12-20T00:55:25.050Z,10.38
2022-12-20T00:57:51.510Z,10.41
2022-12-20T01:00:18.401Z,10.42
2022-12-20T01:02:44.899Z,10.37
2022-12-20T01:05:11.466Z,10.38
2022-12-20T01:07:37.898Z,10.39
2022-12-20T01:10:04.591Z,10.40
2022-12-20T01:12:31.036Z,10.39
2022-12-20T01:14:57.510Z,10.39
2022-12-20T01:17:23.983Z,10.41
2022-12-20T01:19:50.444Z,10.38
2022-12-20T01:22:16.875Z,10.32
2022-12-20T01:24:43.383Z,10.25
2022-12-20T01:27:09.863Z,10.16
2022-12-20T01:29:36.326Z,10.06
2022-12-20T01:32:02.792Z,9.97
2022-12-20T01:34:29.385Z,9.91
2022-12-20T01:36:55.887Z,9.83
2022-12-20T01:39:22.310Z,9.74
2022-12-20T01:41:48.772Z,9.67
2022-12-20T01:44:18.267Z,9.63
2022-12-20T01:46:49.601Z,9.53
2022-12-20T01:49:21.719Z,9.51
2022-12-20T01:51:53.028Z,9.51
2022-12-20T01:54:25.383Z,9.48
2022-12-20T01:56:58.580Z,9.45
2022-12-20T01:59:26.352Z,9.41
2022-12-20T02:01:53.027Z,9.42
2022-12-20T02:04:19.498Z,9.41
2022-12-20T02:06:45.974Z,9.42
2022-12-20T02:09:12.523Z,9.41
2022-12-20T02:12:14.898Z,9.41
2022-12-20T02:15:19.520Z,9.40
2022-12-20T02:18:24.070Z,9.40
2022-12-20T02:21:15.534Z,9.40
2022-12-20T02:24:26.959Z,9.39
2022-12-20T02:27:04.931Z,9.39
2022-12-20T02:29:31.309Z,9.37
2022-12-20T02:32:20.353Z,9.38
2022-12-20T02:34:47.200Z,9.35
2022-12-20T02:37:13.666Z,9.33
2022-12-20T02:39:42.261Z,9.33
2022-12-20T02:42:15.264Z,9.31
2022-12-20T02:45:05.744Z,9.32
2022-12-20T02:47:56.235Z,9.32
2022-12-20T02:50:28.426Z,9.33
2022-12-20T02:52:55.523Z,9.31
2022-12-20T02:55:31.492Z,9.32
2022-12-20T02:58:10.173Z,9.31
2022-12-20T03:00:43.301Z,9.32
2022-12-20T03:03:22.860Z,9.31
2022-12-20T03:05:52.124Z,9.28
2022-12-20T03:08:19.475Z,9.30
2022-12-20T03:10:46.153Z,9.30
2022-12-20T03:13:12.910Z,9.29
2022-12-20T03:15:39.398Z,9.30
2022-12-20T03:18:05.968Z,9.31
2022-12-20T03:20:32.787Z,9.31
2022-12-20T03:22:59.422Z,9.31
2022-12-20T03:25:26.081Z,9.30
2022-12-20T03:27:52.571Z,9.30
2022-12-20T03:30:19.238Z,9.31
2022-12-20T03:32:45.654Z,9.29
2022-12-20T03:35:12.420Z,9.31
2022-12-20T03:37:38.895Z,9.36
2022-12-20T03:40:06.131Z,9.38
2022-12-20T03:42:32.912Z,9.40
2022-12-20T03:44:59.460Z,9.36
2022-12-20T03:47:26.507Z,9.37
2022-12-20T03:49:53.055Z,9.40
2022-12-20T03:52:19.483Z,9.41
2022-12-20T03:54:45.908Z,9.45
2022-12-20T03:57:12.370Z,9.45
2022-12-20T03:59:38.897Z,9.46
2022-12-20T04:02:06.002Z,9.49
2022-12-20T04:04:32.710Z,9.52
2022-12-20T04:06:59.158Z,9.53
2022-12-20T04:09:25.599Z,9.56
2022-12-20T04:11:52.025Z,9.61
2022-12-20T04:14:18.488Z,9.61
2022-12-20T04:16:44.994Z,9.63
2022-12-20T04:19:12.081Z,9.67
2022-12-20T04:21:38.710Z,9.68
2022-12-20T04:24:06.444Z,9.68
2022-12-20T04:26:33.149Z,9.74
2022-12-20T04:28:59.564Z,9.75
2022-12-20T04:31:26.049Z,9.75
2022-12-20T04:33:53.207Z,9.76
2022-12-20T04:36:20.264Z,9.78
2022-12-20T04:38:46.704Z,9.78
2022-12-20T04:41:22.207Z,9.80
2022-12-20T04:43:54.409Z,9.82
2022-12-20T04:46:22.232Z,9.89
2022-12-20T04:48:58.378Z,9.90
2022-12-20T04:51:27.169Z,9.93
2022-12-20T04:53:54.021Z,9.90
2022-12-20T04:56:28.891Z,9.82
2022-12-20T04:58:57.535Z,9.77
2022-12-20T05:01:24.881Z,9.72
2022-12-20T05:03:51.940Z,9.74
2022-12-20T05:06:18.927Z,9.79
2022-12-20T05:08:45.482Z,9.79
2022-12-20T05:11:12.430Z,9.79
2022-12-20T05:13:39.250Z,9.82
2022-12-20T05:16:05.958Z,9.84
2022-12-20T05:18:32.688Z,9.85
2022-12-20T05:21:19.227Z,9.86
2022-12-20T05:24:05.199Z,9.85
2022-12-20T05:26:34.444Z,9.85
2022-12-20T05:29:00.916Z,9.84
2022-12-20T05:31:27.853Z,9.87
2022-12-20T05:33:54.675Z,9.86
2022-12-20T05:36:21.411Z,9.82
2022-12-20T05:38:48.967Z,9.81
2022-12-20T05:41:15.917Z,9.81
2022-12-20T05:43:42.363Z,9.81
2022-12-20T05:46:10.989Z,9.80
2022-12-20T05:48:37.724Z,9.79
2022-12-20T05:51:04.612Z,9.79
2022-12-20T05:53:31.196Z,9.81
2022-12-20T05:55:57.944Z,9.81
2022-12-20T05:58:24.468Z,9.84
2022-12-20T06:00:50.940Z,9.86
2022-12-20T06:03:17.577Z,9.86
2022-12-20T06:05:45.112Z,9.87
2022-12-20T06:08:12.387Z,9.86
2022-12-20T06:10:40.581Z,9.88
2022-12-20T06:13:07.774Z,9.88
2022-12-20T06:15:34.358Z,9.87
2022-12-20T06:18:00.891Z,9.86
2022-12-20T06:20:28.587Z,9.92
2022-12-20T06:22:55.032Z,9.92
2022-12-20T06:25:21.510Z,9.95
2022-12-20T06:27:48.011Z,9.99
2022-12-20T06:30:15.086Z,10.01
2022-12-20T06:32:41.644Z,10.04
2022-12-20T06:35:08.667Z,10.05
2022-12-20T06:37:36.267Z,10.06
2022-12-20T06:40:04.482Z,10.10
2022-12-20T06:42:31.113Z,10.13
2022-12-20T06:44:57.548Z,10.13
2022-12-20T06:47:24.082Z,10.15
2022-12-20T06:49:50.544Z,10.19
2022-12-20T06:52:16.951Z,10.19
2022-12-20T06:54:43.431Z,10.21
2022-12-20T06:57:09.911Z,10.24
2022-12-20T06:59:36.391Z,10.26
2022-12-20T07:02:03.052Z,10.30
2022-12-20T07:04:29.646Z,10.37
2022-12-20T07:06:57.229Z,10.36
2022-12-20T07:09:23.977Z,10.36
2022-12-20T07:11:50.517Z,10.34
2022-12-20T07:14:16.969Z,10.35
2022-12-20T07:16:43.929Z,10.40
2022-12-20T07:19:12.249Z,10.40
2022-12-20T07:21:38.801Z,10.39
2022-12-20T07:24:05.978Z,10.42
2022-12-20T07:26:32.571Z,10.40
2022-12-20T07:28:59.042Z,10.41
2022-12-20T07:31:25.523Z,10.47
2022-12-20T07:33:52.775Z,10.48
2022-12-20T07:36:19.315Z,10.54
2022-12-20T07:38:45.846Z,10.57
2022-12-20T07:41:15.203Z,10.56
2022-12-20T07:43:42.788Z,10.57
2022-12-20T07:46:11.919Z,10.60
2022-12-20T07:48:38.572Z,10.58
2022-12-20T07:51:09.788Z,10.60
2022-12-20T07:53:42.496Z,10.61
2022-12-20T07:56:10.580Z,10.61
2022-12-20T07:58:39.553Z,10.62
2022-12-20T08:01:07.455Z,10.60
2022-12-20T08:03:44.551Z,10.59
2022-12-20T08:06:12.380Z,10.57
2022-12-20T08:08:44.090Z,10.61
2022-12-20T08:11:11.664Z,10.63
2022-12-20T08:13:45.647Z,10.62
2022-12-20T08:16:13.031Z,10.61
2022-12-20T08:18:39.541Z,10.62
2022-12-20T08:21:06.029Z,10.63
2022-12-20T08:23:32.550Z,10.62
2022-12-20T08:26:01.661Z,10.60
2022-12-20T08:28:28.185Z,10.62
2022-12-20T08:31:04.028Z,10.64
2022-12-20T08:33:34.909Z,10.64
2022-12-20T08:36:04.331Z,10.65
2022-12-20T08:38:31.253Z,10.64
2022-12-20T08:41:10.897Z,10.65
2022-12-20T08:43:38.391Z,10.65
2022-12-20T08:46:05.636Z,10.68
2022-12-20T08:48:32.489Z,10.70
2022-12-20T08:51:01.403Z,10.68
2022-12-20T08:53:29.556Z,10.63
2022-12-20T08:56:17.543Z,10.52
2022-12-20T08:58:45.088Z,10.49
2022-12-20T09:01:14.937Z,10.44
2022-12-20T09:03:42.437Z,10.38
2022-12-20T09:06:11.873Z,10.33
2022-12-20T09:08:39.612Z,10.35
2022-12-20T09:11:14.078Z,10.34
2022-12-20T09:13:44.463Z,10.29
2022-12-20T09:16:13.411Z,10.24
2022-12-20T09:18:39.968Z,10.20
2022-12-20T09:21:07.818Z,10.18
2022-12-20T09:23:35.741Z,10.11
2022-12-20T09:26:08.259Z,10.08
2022-12-20T09:28:35.485Z,10.01
2022-12-20T09:31:04.567Z,10.00
2022-12-20T09:33:32.499Z,9.97
2022-12-20T09:35:59.820Z,9.94
2022-12-20T09:38:27.005Z,9.90
2022-12-20T09:40:56.269Z,9.90
2022-12-20T09:43:24.105Z,9.90
2022-12-20T09:45:59.713Z,9.87
2022-12-20T09:48:31.634Z,9.84
2022-12-20T09:51:09.951Z,9.83
2022-12-20T09:53:57.174Z,9.81
2022-12-20T09:56:30.253Z,9.80
2022-12-20T09:58:56.619Z,9.81
2022-12-20T10:01:27.744Z,9.81
2022-12-20T10:03:58.667Z,9.82
2022-12-20T10:06:47.403Z,9.80
2022-12-20T10:09:33.408Z,9.81
2022-12-20T10:12:28.549Z,9.79
2022-12-20T10:15:19.727Z,9.79
2022-12-20T10:18:04.117Z,9.76
2022-12-20T10:21:05.023Z,9.75
2022-12-20T10:23:42.515Z,9.75
2022-12-20T10:26:11.320Z,9.78
2022-12-20T10:28:38.638Z,9.79
2022-12-20T10:31:13.685Z,9.78
2022-12-20T10:33:41.165Z,9.76
2022-12-20T10:36:40.198Z,9.75
2022-12-20T10:39:09.161Z,9.74
2022-12-20T10:41:42.726Z,9.76
2022-12-20T10:44:15.558Z,9.78
2022-12-20T10:46:48.716Z,9.78
2022-12-20T10:49:32.976Z,9.79
2022-12-20T10:52:09.825Z,9.80
2022-12-20T10:54:39.027Z,9.79
2022-12-20T10:57:18.909Z,9.75
2022-12-20T11:00:00.590Z,9.76
2022-12-20T11:02:42.152Z,9.77
2022-12-20T11:05:09.864Z,9.78
2022-12-20T11:07:37.879Z,9.78
2022-12-20T11:10:21.194Z,9.78
2022-12-20T11:12:59.522Z,9.79
2022-12-20T11:15:34.692Z,9.79
2022-12-20T11:18:43.105Z,9.80
2022-12-20T11:21:32.127Z,9.79
2022-12-20T11:24:16.808Z,9.80
2022-12-20T11:27:01.768Z,9.82
2022-12-20T11:29:37.107Z,9.83
2022-12-20T11:32:36.732Z,9.84
2022-12-20T11:35:46.287Z,9.85
2022-12-20T11:38:25.125Z,9.86
2022-12-20T11:41:02.992Z,9.88
2022-12-20T11:44:15.901Z,9.88
2022-12-20T11:46:57.690Z,9.89
2022-12-20T11:49:43.849Z,9.88
2022-12-20T11:52:36.728Z,9.89
2022-12-20T11:55:27.341Z,9.91
2022-12-20T11:58:20.384Z,9.90
2022-12-20T12:00:55.239Z,9.91
2022-12-20T12:03:26.854Z,9.91
2022-12-20T12:06:10.422Z,9.92
2022-12-20T12:09:06.003Z,9.92
2022-12-20T12:14:46.758Z,9.96
2022-12-20T12:17:38.216Z,9.95
2022-12-20T12:20:18.184Z,10.00
2022-12-20T12:22:46.565Z,9.99
2022-12-20T12:25:17.869Z,10.01
2022-12-20T12:27:44.820Z,10.03
2022-12-20T12:30:16.059Z,10.03
2022-12-20T12:33:07.405Z,10.05
2022-12-20T12:36:00.682Z,10.06
2022-12-20T12:38:45.933Z,10.06
2022-12-20T12:41:50.743Z,10.08
2022-12-20T12:44:20.326Z,10.07
2022-12-20T12:46:54.861Z,10.05
2022-12-20T12:49:25.499Z,10.08
2022-12-20T12:51:59.461Z,10.10
2022-12-20T12:54:36.838Z,10.10
2022-12-20T12:57:19.144Z,10.09
2022-12-20T12:59:48.857Z,10.10
2022-12-20T13:02:15.845Z,10.09
2022-12-20T13:04:59.522Z,10.06
2022-12-20T13:07:28.885Z,10.08
2022-12-20T13:09:55.351Z,10.09
2022-12-20T13:12:37.612Z,10.09
2022-12-20T13:15:22.610Z,10.08
2022-12-20T13:17:59.440Z,10.10
2022-12-20T13:20:30.573Z,10.10
2022-12-20T13:23:17.405Z,10.11
2022-12-20T13:25:51.683Z,10.11
2022-12-20T13:28:24.308Z,10.09
2022-12-20T13:30:53.768Z,10.10
2022-12-20T13:33:23.474Z,10.09
2022-12-20T13:35:57.637Z,10.09
2022-12-20T13:38:45.277Z,10.09
2022-12-20T13:41:39.444Z,10.08
2022-12-20T13:44:24.376Z,10.10
2022-12-20T13:47:12.729Z,10.08
2022-12-20T13:49:42.336Z,10.07
2022-12-20T13:52:11.705Z,10.09
2022-12-20T13:54:44.594Z,10.10
2022-12-20T13:57:24.092Z,10.10
2022-12-20T14:00:00.011Z,10.12
2022-12-20T14:02:36.343Z,10.12
2022-12-20T14:05:14.864Z,10.11
2022-12-20T14:07:42.778Z,10.12
2022-12-20T14:10:22.603Z,10.11
2022-12-20T14:12:53.662Z,10.10
2022-12-20T14:15:32.532Z,10.12
2022-12-20T14:18:06.963Z,10.12
2022-12-20T14:20:37.686Z,10.11
2022-12-20T14:23:10.268Z,10.12
2022-12-20T14:26:03.544Z,10.12
2022-12-20T14:28:44.411Z,10.12
2022-12-20T14:31:44.411Z,10.11
2022-12-20T14:34:10.797Z,10.11
2022-12-20T14:36:38.967Z,10.10
2022-12-20T14:39:35.078Z,10.10
2022-12-20T14:42:12.349Z,10.09
2022-12-20T14:44:39.667Z,10.07
2022-12-20T14:47:28.318Z,10.07
2022-12-20T14:50:00.226Z,10.06
2022-12-20T14:52:34.273Z,10.05
2022-12-20T14:55:25.128Z,10.08
2022-12-20T14:57:54.271Z,10.03
2022-12-20T15:00:27.980Z,10.03
2022-12-20T15:03:00.895Z,10.03
2022-12-20T15:05:33.999Z,10.01
2022-12-20T15:08:23.589Z,10.01
2022-12-20T15:10:56.263Z,10.00
2022-12-20T15:13:28.060Z,9.99
2022-12-20T15:15:55.377Z,9.99
2022-12-20T15:18:22.556Z,9.97
2022-12-20T15:20:59.419Z,9.97
2022-12-20T15:23:25.928Z,9.95
2022-12-20T15:25:52.440Z,9.96
2022-12-20T15:28:22.166Z,9.96
2022-12-20T15:30:50.552Z,9.95
2022-12-20T15:33:19.234Z,9.94
2022-12-20T15:35:46.511Z,9.93
2022-12-20T15:38:25.396Z,9.91
2022-12-20T15:41:07.895Z,9.92
2022-12-20T15:43:39.006Z,9.90
2022-12-20T15:46:06.150Z,9.91
2022-12-20T15:48:32.642Z,9.91
2022-12-20T15:50:59.936Z,9.90
2022-12-20T15:53:34.056Z,9.90
2022-12-20T15:56:00.903Z,9.90
2022-12-20T15:58:27.533Z,9.91
2022-12-20T16:00:58.585Z,9.90
2022-12-20T16:03:30.200Z,9.92
2022-12-20T16:05:56.883Z,9.89
2022-12-20T16:08:23.504Z,9.89
2022-12-20T16:10:52.012Z,9.88
2022-12-20T16:13:23.625Z,9.86
2022-12-20T16:15:51.120Z,9.86
2022-12-20T16:18:17.651Z,9.84
2022-12-20T16:20:44.613Z,9.84
2022-12-20T16:23:29.197Z,9.84
2022-12-20T16:25:55.667Z,9.79
2022-12-20T16:28:22.094Z,9.77
2022-12-20T16:30:53.267Z,9.79
2022-12-20T16:33:21.151Z,9.79
2022-12-20T16:35:48.031Z,9.80
2022-12-20T16:38:14.558Z,9.75
2022-12-20T16:40:41.065Z,9.76
2022-12-20T16:43:14.015Z,9.74
2022-12-20T16:45:40.483Z,9.74
2022-12-20T16:48:08.044Z,9.75
2022-12-20T16:50:41.359Z,9.73
2022-12-20T16:53:12.432Z,9.72
2022-12-20T16:55:40.133Z,9.70
2022-12-20T16:58:06.816Z,9.73
2022-12-20T17:00:33.305Z,9.73
2022-12-20T17:02:59.931Z,9.74
2022-12-20T17:05:30.321Z,9.75
2022-12-20T17:07:56.919Z,9.74
2022-12-20T17:10:24.382Z,9.76
2022-12-20T17:12:51.542Z,9.74
2022-12-20T17:15:27.718Z,9.72
2022-12-20T17:17:55.146Z,9.74
2022-12-20T17:20:23.591Z,9.74
2022-12-20T17:25:37.082Z,9.74
2022-12-20T17:28:03.688Z,9.75
2022-12-20T17:30:30.163Z,9.74
2022-12-20T17:32:56.645Z,9.73
2022-12-20T17:35:32.650Z,9.71
2022-12-20T17:38:00.471Z,9.70
2022-12-20T17:40:28.528Z,9.70
2022-12-20T17:42:55.510Z,9.71
2022-12-20T17:45:29.435Z,9.71
2022-12-20T17:47:57.095Z,9.69
2022-12-20T17:50:24.490Z,9.70
2022-12-20T17:52:52.229Z,9.70
2022-12-20T17:55:25.899Z,9.70
2022-12-20T17:57:53.688Z,9.68
2022-12-20T18:00:23.453Z,9.67
2022-12-20T18:02:50.195Z,9.67
2022-12-20T18:05:16.887Z,9.65
2022-12-20T18:07:43.865Z,9.65
2022-12-20T18:10:10.797Z,9.67
2022-12-20T18:12:38.785Z,9.63
2022-12-20T18:15:07.354Z,9.63
2022-12-20T18:17:33.886Z,9.63
2022-12-20T18:20:00.330Z,9.63
2022-12-20T18:22:26.823Z,9.61
2022-12-20T18:24:53.282Z,9.60
2022-12-20T18:27:23.714Z,9.58
2022-12-20T18:29:53.388Z,9.59
2022-12-20T18:32:19.985Z,9.59
2022-12-20T18:34:46.477Z,9.59
2022-12-20T18:37:12.923Z,9.58
2022-12-20T18:39:39.377Z,9.57
2022-12-20T18:42:05.913Z,9.57
2022-12-20T18:44:35.681Z,9.55
2022-12-20T18:47:03.165Z,9.55
2022-12-20T18:49:30.131Z,9.54
2022-12-20T18:51:58.825Z,9.54
2022-12-20T18:54:25.590Z,9.55
2022-12-20T18:56:52.295Z,9.54
2022-12-20T18:59:18.823Z,9.54
2022-12-20T19:01:45.437Z,9.54
2022-12-20T19:04:12.213Z,9.51
2022-12-20T19:06:39.053Z,9.49
2022-12-20T19:09:11.440Z,9.47
2022-12-20T19:11:38.253Z,9.49
2022-12-20T19:14:04.890Z,9.49
2022-12-20T19:16:32.970Z,9.49
2022-12-20T19:19:02.184Z,9.47
2022-12-20T19:21:31.017Z,9.47
2022-12-20T19:24:00.064Z,9.47
2022-12-20T19:26:28.263Z,9.46
2022-12-20T19:28:55.198Z,9.45
2022-12-20T19:31:27.366Z,9.44
2022-12-20T19:33:56.530Z,9.47
2022-12-20T19:36:28.935Z,9.46
2022-12-20T19:38:58.931Z,9.46
2022-12-20T19:41:28.781Z,9.46
2022-12-20T19:43:56.497Z,9.46
2022-12-20T19:46:28.849Z,9.47
2022-12-20T19:48:57.612Z,9.46
2022-12-20T19:51:25.683Z,9.45
2022-12-20T19:53:53.730Z,9.47
2022-12-20T19:56:25.592Z,9.46
2022-12-20T19:58:53.151Z,9.46
2022-12-20T20:01:22.991Z,9.45
2022-12-20T20:03:49.903Z,9.47
2022-12-20T20:06:16.579Z,9.45
2022-12-20T20:08:43.171Z,9.46
2022-12-20T20:11:10.655Z,9.46
2022-12-20T20:13:38.551Z,9.45
2022-12-20T20:16:06.063Z,9.45
2022-12-20T20:18:35.200Z,9.43
2022-12-20T20:21:09.714Z,9.44
2022-12-20T20:23:37.287Z,9.43
2022-12-20T20:26:08.389Z,9.42
2022-12-20T20:28:41.922Z,9.42
2022-12-20T20:31:13.572Z,9.42
2022-12-20T20:33:40.382Z,9.40
2022-12-20T20:36:07.482Z,9.40
2022-12-20T20:38:34.933Z,9.40
2022-12-20T20:41:01.805Z,9.39
2022-12-20T20:43:29.767Z,9.40
2022-12-20T20:45:56.997Z,9.39
2022-12-20T20:48:23.754Z,9.36
2022-12-20T20:50:50.506Z,9.40
2022-12-20T20:53:16.967Z,9.40
2022-12-20T20:55:43.508Z,9.40
2022-12-20T20:58:10.201Z,9.38
2022-12-20T21:00:36.882Z,9.41
2022-12-20T21:03:03.909Z,9.41
2022-12-20T21:08:18.239Z,9.41
2022-12-20T21:10:44.859Z,9.42
2022-12-20T21:13:12.062Z,9.40
2022-12-20T21:15:40.715Z,9.42
2022-12-20T21:18:07.267Z,9.41
2022-12-20T21:20:33.741Z,9.42
2022-12-20T21:23:01.485Z,9.39
2022-12-20T21:25:28.276Z,9.39
2022-12-20T21:27:56.111Z,9.39
2022-12-20T21:30:23.034Z,9.40
2022-12-20T21:32:50.413Z,9.42
2022-12-20T21:35:16.980Z,9.41
2022-12-20T21:37:43.477Z,9.36
2022-12-20T21:40:10.560Z,9.39
2022-12-20T21:42:37.704Z,9.38
2022-12-20T21:45:04.577Z,9.36
2022-12-20T21:47:31.064Z,9.35
2022-12-20T21:49:57.509Z,9.38
2022-12-20T21:52:23.989Z,9.36
2022-12-20T21:54:50.446Z,9.35
2022-12-20T21:57:16.880Z,9.33
2022-12-20T21:59:43.347Z,9.34
2022-12-20T22:02:12.484Z,9.32
2022-12-20T22:04:39.296Z,9.31
2022-12-20T22:07:05.900Z,9.32
2022-12-20T22:09:32.368Z,9.30
2022-12-20T22:11:58.839Z,9.30
2022-12-20T22:14:25.412Z,9.30
2022-12-20T22:16:51.910Z,9.30
2022-12-20T22:19:18.593Z,9.30
2022-12-20T22:21:45.112Z,9.26
2022-12-20T22:24:11.648Z,9.25
2022-12-20T22:26:40.978Z,9.23
2022-12-20T22:29:08.823Z,9.23
2022-12-20T22:31:36.478Z,9.24
2022-12-20T22:34:03.176Z,9.20
2022-12-20T22:36:29.937Z,9.18
2022-12-20T22:38:56.995Z,9.18
2022-12-20T22:41:32.537Z,9.18
2022-12-20T22:43:59.662Z,9.15
2022-12-20T22:46:29.087Z,9.12
2022-12-20T22:48:56.377Z,9.11
2022-12-20T22:51:25.801Z,9.09
2022-12-20T22:53:52.495Z,9.13
2022-12-20T22:56:21.067Z,9.06
2022-12-20T22:58:47.900Z,9.07
2022-12-20T23:01:16.179Z,9.05
2022-12-20T23:03:43.235Z,9.05
2022-12-20T23:06:13.267Z,9.06
2022-12-20T23:08:40.637Z,9.06
2022-12-20T23:11:36.674Z,9.09
2022-12-20T23:14:22.502Z,9.08
2022-12-20T23:16:49.428Z,9.12
2022-12-20T23:19:15.971Z,9.08
2022-12-20T23:22:00.754Z,9.08
2022-12-20T23:24:27.271Z,9.10
2022-12-20T23:26:53.740Z,9.07
2022-12-20T23:29:20.235Z,9.11
2022-12-20T23:31:46.920Z,9.08
2022-12-20T23:34:13.513Z,9.09
2022-12-20T23:36:40.851Z,9.00
2022-12-20T23:39:07.903Z,8.98
2022-12-20T23:41:34.585Z,9.01
2022-12-20T23:44:03.939Z,9.01
2022-12-20T23:46:30.538Z,9.01
2022-12-20T23:48:57.143Z,9.02
2022-12-20T23:51:23.646Z,9.02
2022-12-20T23:53:53.336Z,9.00
2022-12-20T23:56:21.508Z,8.99
2022-12-20T23:58:54.192Z,9.00
